createdAt,value
2022-12-23T00:01:54.756Z,47.24
2022-12-23T00:04:39.941Z,47.29
2022-12-23T00:07:25.273Z,47.24
2022-12-23T00:10:11.027Z,47.31
2022-12-23T00:13:15.383Z,47.38
2022-12-23T00:16:05.896Z,47.38
2022-12-23T00:18:53.284Z,47.33
2022-12-23T00:21:38.662Z,47.31
2022-12-23T00:24:23.980Z,47.49
2022-12-23T00:27:09.405Z,47.32
2022-12-23T00:29:54.656Z,47.63
2022-12-23T00:32:40.005Z,47.50
2022-12-23T00:35:25.483Z,47.67
2022-12-23T00:38:10.773Z,47.57
2022-12-23T00:41:14.774Z,47.42
2022-12-23T00:44:00.864Z,47.39
2022-12-23T00:46:46.832Z,47.47
2022-12-23T00:49:44.499Z,47.37
2022-12-23T00:52:29.955Z,47.44
2022-12-23T00:55:15.363Z,47.53
2022-12-23T00:58:00.491Z,47.65
2022-12-23T01:01:05.429Z,47.58
2022-12-23T01:04:09.308Z,47.51
2022-12-23T01:06:54.575Z,47.58
2022-12-23T01:09:39.890Z,47.58
2022-12-23T01:12:25.281Z,47.36
2022-12-23T01:15:10.905Z,47.66
2022-12-23T01:17:56.754Z,47.60
2022-12-23T01:20:41.986Z,47.68
2022-12-23T01:23:27.287Z,47.51
2022-12-23T01:26:12.935Z,47.63
2022-12-23T01:28:58.978Z,47.46
2022-12-23T01:31:44.566Z,47.53
2022-12-23T01:34:36.014Z,47.65
2022-12-23T01:37:22.122Z,47.55
2022-12-23T01:40:08.980Z,47.54
2022-12-23T01:42:54.254Z,47.43
2022-12-23T01:45:39.518Z,47.49
2022-12-23T01:48:27.305Z,47.58
2022-12-23T01:51:22.844Z,47.47
2022-12-23T01:54:08.467Z,47.35
2022-12-23T01:56:53.927Z,47.49
2022-12-23T01:59:59.715Z,47.51
2022-12-23T02:03:05.394Z,47.49
2022-12-23T02:05:52.663Z,47.51
2022-12-23T02:08:58.044Z,47.48
2022-12-23T02:12:24.267Z,47.42
2022-12-23T02:15:48.411Z,47.60
2022-12-23T02:19:04.086Z,47.56
2022-12-23T02:22:13.166Z,47.51
2022-12-23T02:25:39.448Z,47.56
2022-12-23T02:28:34.091Z,47.63
2022-12-23T02:31:55.156Z,47.70
2022-12-23T02:34:46.229Z,47.57
2022-12-23T02:37:48.895Z,47.60
2022-12-23T02:41:22.623Z,47.76
2022-12-23T02:44:08.118Z,47.67
2022-12-23T02:47:00.383Z,47.69
2022-12-23T02:49:51.739Z,47.69
2022-12-23T02:52:41.310Z,47.58
2022-12-23T02:55:32.597Z,47.68
2022-12-23T02:58:23.563Z,47.74
2022-12-23T03:01:11.537Z,47.76
2022-12-23T03:03:56.987Z,47.66
2022-12-23T03:06:46.299Z,47.65
2022-12-23T03:09:44.438Z,47.98
2022-12-23T03:13:03.249Z,47.96
2022-12-23T03:16:22.667Z,47.98
2022-12-23T03:19:10.656Z,47.92
2022-12-23T03:22:23.838Z,48.13
2022-12-23T03:25:21.911Z,47.90
2022-12-23T03:28:16.202Z,47.95
2022-12-23T03:31:06.019Z,47.79
2022-12-23T03:33:57.294Z,47.93
2022-12-23T03:36:50.188Z,47.92
2022-12-23T03:39:45.690Z,47.98
2022-12-23T03:42:36.882Z,47.91
2022-12-23T03:45:42.155Z,47.87
2022-12-23T03:48:39.611Z,47.96
2022-12-23T03:51:34.492Z,47.79
2022-12-23T03:54:28.031Z,47.66
2022-12-23T03:57:14.229Z,47.94
2022-12-23T03:59:59.603Z,47.67
2022-12-23T04:02:59.528Z,47.83
2022-12-23T04:05:53.442Z,48.12
2022-12-23T04:08:39.895Z,48.18
2022-12-23T04:11:25.589Z,48.44
2022-12-23T04:14:10.911Z,48.79
2022-12-23T04:16:58.450Z,48.75
2022-12-23T04:19:48.087Z,48.79
2022-12-23T04:22:33.777Z,48.93
2022-12-23T04:25:19.659Z,48.31
2022-12-23T04:28:05.120Z,48.51
2022-12-23T04:30:50.714Z,48.64
2022-12-23T04:33:36.146Z,49.25
2022-12-23T04:36:21.927Z,49.42
2022-12-23T04:39:07.067Z,49.78
2022-12-23T04:41:52.188Z,49.62
2022-12-23T04:44:37.664Z,49.84
2022-12-23T04:47:23.077Z,50.02
2022-12-23T04:50:13.157Z,50.00
2022-12-23T04:52:58.696Z,50.07
2022-12-23T04:55:44.009Z,50.07
2022-12-23T04:58:29.475Z,50.19
2022-12-23T05:01:14.730Z,50.22
2022-12-23T05:04:00.195Z,50.48
2022-12-23T05:06:45.481Z,50.34
2022-12-23T05:09:30.796Z,50.47
2022-12-23T05:12:16.224Z,50.18
2022-12-23T05:15:01.413Z,50.04
2022-12-23T05:17:46.660Z,49.95
2022-12-23T05:20:31.904Z,49.69
2022-12-23T05:23:17.195Z,49.92
2022-12-23T05:26:02.765Z,49.97
2022-12-23T05:28:48.115Z,49.65
2022-12-23T05:31:33.383Z,49.50
2022-12-23T05:34:18.621Z,49.53
2022-12-23T05:37:03.898Z,49.53
2022-12-23T05:39:49.322Z,49.45
2022-12-23T05:42:34.765Z,49.23
2022-12-23T05:45:20.689Z,49.05
2022-12-23T05:48:06.599Z,48.61
2022-12-23T05:50:53.179Z,48.66
2022-12-23T05:53:38.878Z,48.46
2022-12-23T05:56:24.228Z,48.46
2022-12-23T05:59:09.588Z,48.31
2022-12-23T06:01:54.914Z,48.00
2022-12-23T06:04:40.591Z,47.98
2022-12-23T06:07:26.082Z,48.14
2022-12-23T06:10:11.756Z,48.32
2022-12-23T06:12:57.168Z,47.83
2022-12-23T06:15:42.509Z,47.56
2022-12-23T06:18:27.842Z,47.96
2022-12-23T06:21:13.266Z,47.81
2022-12-23T06:23:58.896Z,47.57
2022-12-23T06:26:44.675Z,47.58
2022-12-23T06:29:29.864Z,47.45
2022-12-23T06:32:18.033Z,47.45
2022-12-23T06:35:04.252Z,47.53
2022-12-23T06:37:52.470Z,47.65
2022-12-23T06:40:37.990Z,47.53
2022-12-23T06:43:23.242Z,47.35
2022-12-23T06:46:10.362Z,47.25
2022-12-23T06:48:56.014Z,47.20
2022-12-23T06:51:41.543Z,47.42
2022-12-23T06:54:27.146Z,47.10
2022-12-23T06:57:12.636Z,47.17
2022-12-23T06:59:57.989Z,47.05
2022-12-23T07:02:43.367Z,47.03
2022-12-23T07:05:34.906Z,46.81
2022-12-23T07:08:22.589Z,46.74
2022-12-23T07:11:08.646Z,47.28
2022-12-23T07:13:54.142Z,47.54
2022-12-23T07:16:39.484Z,47.53
2022-12-23T07:19:25.637Z,47.95
2022-12-23T07:22:11.785Z,47.74
2022-12-23T07:24:57.547Z,47.87
2022-12-23T07:27:43.346Z,47.78
2022-12-23T07:30:29.285Z,47.99
2022-12-23T07:33:14.526Z,48.00
2022-12-23T07:36:00.562Z,48.13
2022-12-23T07:38:50.115Z,48.10
2022-12-23T07:49:58.836Z,49.68
2022-12-23T07:52:43.609Z,48.16
2022-12-23T07:55:28.444Z,48.29
2022-12-23T07:58:13.016Z,47.81
2022-12-23T08:01:07.230Z,48.06
2022-12-23T08:03:51.786Z,47.93
2022-12-23T08:06:36.943Z,47.90
2022-12-23T08:20:05.480Z,47.66
2022-12-23T08:22:50.885Z,47.99
2022-12-23T08:25:35.944Z,47.82
2022-12-23T08:28:21.170Z,47.79
2022-12-23T08:31:09.478Z,47.67
2022-12-23T08:33:57.020Z,47.77
2022-12-23T08:36:42.391Z,47.80
2022-12-23T08:39:28.278Z,47.79
2022-12-23T08:42:13.774Z,47.93
2022-12-23T08:45:00.024Z,47.89
2022-12-23T08:47:45.648Z,48.05
2022-12-23T08:50:31.572Z,47.72
2022-12-23T08:53:16.860Z,47.83
2022-12-23T08:56:04.740Z,48.05
2022-12-23T08:58:52.718Z,47.76
2022-12-23T09:01:38.136Z,47.95
2022-12-23T09:04:23.885Z,47.78
2022-12-23T09:07:09.853Z,48.14
2022-12-23T09:09:55.077Z,48.05
2022-12-23T09:12:40.366Z,47.99
2022-12-23T09:15:25.798Z,47.74
2022-12-23T09:18:12.069Z,47.79
2022-12-23T09:21:02.728Z,47.80
2022-12-23T09:23:48.952Z,48.08
2022-12-23T09:26:34.379Z,48.10
2022-12-23T09:29:19.601Z,47.60
2022-12-23T09:32:04.886Z,47.90
2022-12-23T09:34:50.259Z,47.81
2022-12-23T09:37:36.121Z,48.33
2022-12-23T09:40:22.367Z,48.59
2022-12-23T09:43:45.119Z,48.62
2022-12-23T09:46:33.961Z,48.56
2022-12-23T09:49:21.122Z,48.42
2022-12-23T09:52:13.508Z,48.78
2022-12-23T09:54:59.004Z,48.68
2022-12-23T09:58:02.431Z,48.40
2022-12-23T10:01:14.739Z,48.39
2022-12-23T10:04:06.160Z,48.21
2022-12-23T10:07:22.854Z,48.18
2022-12-23T10:10:37.282Z,48.17
2022-12-23T10:13:38.057Z,47.94
2022-12-23T10:16:31.482Z,47.85
2022-12-23T10:19:34.176Z,47.65
2022-12-23T10:22:41.925Z,47.73
2022-12-23T10:25:37.308Z,47.43
2022-12-23T10:28:23.424Z,47.44
2022-12-23T10:31:40.155Z,47.59
2022-12-23T10:34:47.257Z,47.78
2022-12-23T10:38:00.831Z,49.33
2022-12-23T10:41:15.591Z,48.14
2022-12-23T10:44:19.076Z,47.70
2022-12-23T10:47:16.807Z,48.09
2022-12-23T10:50:14.956Z,47.79
2022-12-23T10:53:04.546Z,47.84
2022-12-23T10:55:50.445Z,48.00
2022-12-23T10:58:41.033Z,47.88
2022-12-23T11:01:30.270Z,48.24
2022-12-23T11:04:19.629Z,47.83
2022-12-23T11:07:42.896Z,47.72
2022-12-23T11:10:21.976Z,47.61
2022-12-23T11:13:07.846Z,47.59
2022-12-23T11:15:53.871Z,47.56
2022-12-23T11:18:52.910Z,47.56
2022-12-23T11:21:38.572Z,47.46
2022-12-23T11:24:25.722Z,47.57
2022-12-23T11:27:14.658Z,47.51
2022-12-23T11:30:00.042Z,47.64
2022-12-23T11:32:45.584Z,47.97
2022-12-23T11:35:33.662Z,47.73
2022-12-23T11:47:21.159Z,47.83
2022-12-23T11:50:29.812Z,47.52
2022-12-23T11:53:22.017Z,48.04
2022-12-23T11:56:13.076Z,47.98
2022-12-23T11:59:22.011Z,47.94
2022-12-23T12:02:14.795Z,47.82
2022-12-23T12:07:51.388Z,48.83
2022-12-23T12:10:39.781Z,47.62
2022-12-23T12:13:38.120Z,47.14
2022-12-23T12:16:48.481Z,48.35
2022-12-23T12:19:43.202Z,48.39
2022-12-23T12:22:38.267Z,48.48
2022-12-23T12:25:39.862Z,48.67
2022-12-23T12:28:47.237Z,48.71
2022-12-23T12:31:39.689Z,48.75
2022-12-23T12:34:34.298Z,48.81
2022-12-23T12:37:36.929Z,49.07
2022-12-23T12:40:34.878Z,47.82
2022-12-23T12:43:28.843Z,47.37
2022-12-23T12:46:39.154Z,48.54
2022-12-23T12:50:02.827Z,48.89
2022-12-23T12:52:51.862Z,48.88
2022-12-23T12:55:42.315Z,48.69
2022-12-23T12:58:27.669Z,48.54
2022-12-23T13:01:13.021Z,48.71
2022-12-23T13:04:25.017Z,48.92
2022-12-23T13:07:29.538Z,48.89
2022-12-23T13:10:30.478Z,49.20
2022-12-23T13:13:43.403Z,48.90
2022-12-23T13:16:39.889Z,48.68
2022-12-23T13:19:37.655Z,48.96
2022-12-23T13:22:33.648Z,46.64
2022-12-23T13:25:35.305Z,47.24
2022-12-23T13:28:55.110Z,47.79
2022-12-23T13:32:00.746Z,48.65
2022-12-23T13:35:03.566Z,48.68
2022-12-23T13:38:16.198Z,48.47
2022-12-23T13:41:25.303Z,48.72
2022-12-23T13:44:13.564Z,48.36
2022-12-23T13:47:36.990Z,48.28
2022-12-23T13:51:15.198Z,48.47
2022-12-23T13:54:22.867Z,48.10
2022-12-23T13:57:14.705Z,48.00
2022-12-23T14:00:17.056Z,47.92
2022-12-23T14:03:03.410Z,47.72
2022-12-23T14:05:53.283Z,47.54
2022-12-23T14:08:42.655Z,47.45
2022-12-23T14:11:32.051Z,47.42
2022-12-23T14:14:23.922Z,47.32
2022-12-23T14:17:21.723Z,47.79
2022-12-23T14:20:45.532Z,48.23
2022-12-23T14:23:50.076Z,47.94
2022-12-23T14:26:47.026Z,47.44
2022-12-23T14:30:01.517Z,47.78
2022-12-23T14:32:57.219Z,47.71
2022-12-23T14:35:43.075Z,48.16
2022-12-23T14:38:30.463Z,48.54
2022-12-23T14:41:38.932Z,48.60
2022-12-23T14:44:37.096Z,48.99
2022-12-23T14:47:35.789Z,48.72
2022-12-23T14:50:41.680Z,49.18
2022-12-23T14:53:31.809Z,48.90
2022-12-23T14:56:32.586Z,49.08
2022-12-23T14:59:24.577Z,48.79
2022-12-23T15:02:22.520Z,48.81
2022-12-23T15:05:08.799Z,48.54
2022-12-23T15:07:56.092Z,49.00
2022-12-23T15:10:44.472Z,49.25
2022-12-23T15:13:32.419Z,49.12
2022-12-23T15:16:18.750Z,49.25
2022-12-23T15:19:20.034Z,49.32
2022-12-23T15:22:17.260Z,49.41
2022-12-23T15:25:32.819Z,48.90
2022-12-23T15:28:24.304Z,48.73
2022-12-23T15:31:35.834Z,50.00
2022-12-23T15:34:31.145Z,50.75
2022-12-23T15:37:20.861Z,51.04
2022-12-23T15:40:13.194Z,49.95
2022-12-23T15:42:59.563Z,49.51
2022-12-23T15:45:45.493Z,49.67
2022-12-23T15:48:32.843Z,49.94
2022-12-23T15:51:50.072Z,50.47
2022-12-23T15:54:35.025Z,50.85
2022-12-23T15:57:24.141Z,50.91
2022-12-23T16:00:43.589Z,50.55
2022-12-23T16:03:31.992Z,50.56
2022-12-23T16:06:17.224Z,50.55
2022-12-23T16:09:17.806Z,50.18
2022-12-23T16:12:24.381Z,50.40
2022-12-23T16:15:26.614Z,50.17
2022-12-23T16:18:28.556Z,49.82
2022-12-23T16:21:14.197Z,50.24
2022-12-23T16:24:00.860Z,50.52
2022-12-23T16:26:45.938Z,51.32
2022-12-23T16:29:33.488Z,51.31
2022-12-23T16:32:19.952Z,51.14
2022-12-23T16:35:12.565Z,51.48
2022-12-23T16:38:22.043Z,50.32
2022-12-23T16:41:07.681Z,49.49
2022-12-23T16:43:53.231Z,50.73
2022-12-23T16:46:42.817Z,50.88
2022-12-23T16:49:33.841Z,51.30
2022-12-23T16:52:20.044Z,51.43
2022-12-23T16:55:14.291Z,51.10
2022-12-23T16:57:59.782Z,50.93
2022-12-23T17:00:45.639Z,50.68
2022-12-23T17:03:32.651Z,50.81
2022-12-23T17:06:19.909Z,50.86
2022-12-23T17:09:06.024Z,50.77
2022-12-23T17:11:53.612Z,50.48
2022-12-23T17:14:38.979Z,50.47
2022-12-23T17:17:26.060Z,50.75
2022-12-23T17:20:12.039Z,50.86
2022-12-23T17:22:59.669Z,50.57
2022-12-23T17:25:44.818Z,50.31
2022-12-23T17:28:32.856Z,48.57
2022-12-23T17:31:26.310Z,49.70
2022-12-23T17:34:21.265Z,49.79
2022-12-23T17:37:21.465Z,50.47
2022-12-23T17:40:07.952Z,50.36
2022-12-23T17:42:53.435Z,50.74
2022-12-23T17:45:38.795Z,50.66
2022-12-23T17:48:29.614Z,50.49
2022-12-23T17:51:19.096Z,50.74
2022-12-23T17:54:05.780Z,50.28
2022-12-23T17:56:51.656Z,50.44
2022-12-23T17:59:38.814Z,50.98
2022-12-23T18:02:28.049Z,50.82
2022-12-23T18:05:28.322Z,51.04
2022-12-23T18:08:14.012Z,51.12
2022-12-23T18:10:59.921Z,50.75
2022-12-23T18:13:46.648Z,50.67
2022-12-23T18:16:32.315Z,50.74
2022-12-23T18:19:19.569Z,51.22
2022-12-23T18:22:04.955Z,51.31
2022-12-23T18:24:56.972Z,50.82
2022-12-23T18:27:45.657Z,50.88
2022-12-23T18:30:31.433Z,50.41
2022-12-23T18:33:18.084Z,50.20
2022-12-23T18:36:04.123Z,51.04
2022-12-23T18:38:52.122Z,51.61
2022-12-23T18:41:37.521Z,51.91
2022-12-23T18:44:22.919Z,50.93
2022-12-23T18:47:08.985Z,51.13
2022-12-23T18:49:54.497Z,50.95
2022-12-23T18:52:40.899Z,51.29
2022-12-23T18:55:28.118Z,51.07
2022-12-23T18:58:14.963Z,50.84
2022-12-23T19:01:01.301Z,50.69
2022-12-23T19:03:47.017Z,50.85
2022-12-23T19:06:32.507Z,51.19
2022-12-23T19:09:20.479Z,50.89
2022-12-23T19:12:05.759Z,50.73
2022-12-23T19:14:51.239Z,50.10
2022-12-23T19:17:36.540Z,51.36
2022-12-23T19:20:21.865Z,52.02
2022-12-23T19:23:07.289Z,52.54
2022-12-23T19:25:55.227Z,51.89
2022-12-23T19:28:41.924Z,52.05
2022-12-23T19:31:27.491Z,52.49
2022-12-23T19:34:15.818Z,52.16
2022-12-23T19:37:03.096Z,51.99
2022-12-23T19:39:50.752Z,52.31
2022-12-23T19:42:43.252Z,51.88
2022-12-23T19:45:29.721Z,51.86
2022-12-23T19:48:15.035Z,51.53
2022-12-23T19:51:09.181Z,51.45
2022-12-23T19:53:54.576Z,51.56
2022-12-23T19:56:40.238Z,51.38
2022-12-23T19:59:25.656Z,51.35
2022-12-23T20:02:15.781Z,51.43
2022-12-23T20:05:00.922Z,51.32
2022-12-23T20:07:46.145Z,49.31
2022-12-23T20:10:31.517Z,49.10
2022-12-23T20:13:16.653Z,50.34
2022-12-23T20:16:03.474Z,50.52
2022-12-23T20:18:49.541Z,50.96
2022-12-23T20:21:35.697Z,51.20
2022-12-23T20:24:21.227Z,51.15
2022-12-23T20:27:11.426Z,50.98
2022-12-23T20:29:58.067Z,51.20
2022-12-23T20:32:43.732Z,51.37
2022-12-23T20:35:30.446Z,51.28
2022-12-23T20:38:15.868Z,51.29
2022-12-23T20:41:02.942Z,51.23
2022-12-23T20:44:02.820Z,51.58
2022-12-23T20:46:53.973Z,51.66
2022-12-23T20:49:39.427Z,51.57
2022-12-23T20:52:25.721Z,51.65
2022-12-23T20:55:11.062Z,51.42
2022-12-23T20:57:56.234Z,51.59
2022-12-23T21:00:41.535Z,51.55
2022-12-23T21:03:27.130Z,51.42
2022-12-23T21:06:12.699Z,51.78
2022-12-23T21:08:59.805Z,51.79
2022-12-23T21:11:47.705Z,51.65
2022-12-23T21:14:33.769Z,51.75
2022-12-23T21:17:21.041Z,51.67
2022-12-23T21:20:09.267Z,51.80
2022-12-23T21:22:54.751Z,51.88
2022-12-23T21:25:39.961Z,51.90
2022-12-23T21:28:26.089Z,51.83
2022-12-23T21:31:11.514Z,51.58
2022-12-23T21:33:57.979Z,51.72
2022-12-23T21:36:43.766Z,51.98
2022-12-23T21:39:29.409Z,51.94
2022-12-23T21:42:15.096Z,52.05
2022-12-23T21:45:00.383Z,52.15
2022-12-23T21:47:45.624Z,52.10
2022-12-23T21:50:30.851Z,52.11
2022-12-23T21:53:16.067Z,52.25
2022-12-23T21:56:07.629Z,52.14
2022-12-23T21:59:06.928Z,52.07
2022-12-23T22:01:52.276Z,52.27
2022-12-23T22:04:38.071Z,52.36
2022-12-23T22:07:23.591Z,52.30
2022-12-23T22:10:09.463Z,52.29
2022-12-23T22:12:54.664Z,52.18
2022-12-23T22:15:42.041Z,52.28
2022-12-23T22:18:27.377Z,52.43
2022-12-23T22:21:15.602Z,52.28
2022-12-23T22:24:01.797Z,52.12
2022-12-23T22:26:47.114Z,52.23
2022-12-23T22:29:32.502Z,52.30
2022-12-23T22:32:17.805Z,52.25
2022-12-23T22:35:03.140Z,52.26
2022-12-23T22:37:48.418Z,52.22
2022-12-23T22:40:33.606Z,52.28
2022-12-23T22:43:19.602Z,52.17
2022-12-23T22:46:05.594Z,52.17
2022-12-23T22:48:52.674Z,52.54
2022-12-23T22:51:40.070Z,52.17
2022-12-23T22:54:25.346Z,52.29
2022-12-23T22:57:11.381Z,52.30
2022-12-23T22:59:56.994Z,52.21
2022-12-23T23:02:42.599Z,52.22
2022-12-23T23:05:28.026Z,52.27
2022-12-23T23:08:14.590Z,52.21
2022-12-23T23:11:02.901Z,52.24
2022-12-23T23:13:48.586Z,52.11
2022-12-23T23:16:34.108Z,52.11
2022-12-23T23:19:20.533Z,51.94
2022-12-23T23:22:06.093Z,52.12
2022-12-23T23:24:51.927Z,52.08
2022-12-23T23:27:37.562Z,52.08
2022-12-23T23:30:22.835Z,52.03
2022-12-23T23:33:09.960Z,52.15
2022-12-23T23:35:56.172Z,52.10
2022-12-23T23:38:41.968Z,52.12
2022-12-23T23:41:27.255Z,51.97
2022-12-23T23:44:12.940Z,51.95
2022-12-23T23:46:58.208Z,51.98
2022-12-23T23:49:43.470Z,52.13
2022-12-23T23:52:29.183Z,52.04
2022-12-23T23:55:15.181Z,51.88
2022-12-23T23:58:00.642Z,51.91
